Time;durP1;ratioP1;P1;durP2;ratioP2;P2;SDS_P1;SDS_P2;PMS_P1;PMS_P2;Temp;Humidity;BMP_temperature;BMP_pressure;BME280_temperature;BME280_humidity;BME280_pressure;Samples;Min_cycle;Max_cycle;Signal;HPM_P1;HPM_P2
2023/09/25 00:01:11;;;;;;;0.00;0.00;;;15.80;51.80;;;;;;5071563;28;20234;-45
2023/09/25 00:03:42;;;;;;;0.10;0.10;;;15.80;51.80;;;;;;5071758;28;20191;-45
2023/09/25 00:06:13;;;;;;;0.00;0.00;;;15.90;51.80;;;;;;5071727;28;20206;-45
2023/09/25 00:08:44;;;;;;;0.10;0.10;;;15.90;51.80;;;;;;5071890;28;20195;-47
2023/09/25 00:11:44;;;;;;;0.10;0.10;;;15.90;51.80;;;;;;5071601;28;20229;-45
2023/09/25 00:14:14;;;;;;;0.10;0.10;;;15.90;51.90;;;;;;5071415;28;20206;-46
2023/09/25 00:16:45;;;;;;;0.10;0.10;;;16.00;51.90;;;;;;5072079;28;20597;-46
2023/09/25 00:19:16;;;;;;;0.00;0.00;;;15.90;51.70;;;;;;5071703;28;20205;-44
2023/09/25 00:21:46;;;;;;;0.10;0.10;;;15.90;51.70;;;;;;5072052;28;20215;-46
2023/09/25 00:24:18;;;;;;;0.00;0.00;;;15.90;51.80;;;;;;5071744;28;20248;-46
2023/09/25 00:26:50;;;;;;;0.10;0.10;;;15.90;51.80;;;;;;5071364;28;20658;-46
2023/09/25 00:29:21;;;;;;;0.03;0.03;;;16.00;51.80;;;;;;5071512;28;20202;-45
2023/09/25 00:31:51;;;;;;;0.10;0.10;;;16.00;51.80;;;;;;5071587;28;20219;-45
2023/09/25 00:34:22;;;;;;;0.00;0.00;;;16.00;51.90;;;;;;5071726;28;20654;-45
2023/09/25 00:36:53;;;;;;;0.10;0.10;;;16.00;51.90;;;;;;5071613;28;20213;-44
2023/09/25 00:39:24;;;;;;;0.10;0.10;;;16.10;52.00;;;;;;5071353;28;20202;-44
2023/09/25 00:41:56;;;;;;;0.00;0.00;;;16.10;51.90;;;;;;5071486;28;20583;-45
2023/09/25 00:44:27;;;;;;;0.03;0.03;;;16.10;51.90;;;;;;5073234;28;20561;-46
2023/09/25 00:46:58;;;;;;;0.10;0.10;;;16.10;51.90;;;;;;5075525;28;20217;-47
2023/09/25 00:49:28;;;;;;;0.10;0.10;;;16.10;51.90;;;;;;5075437;28;20252;-44
2023/09/25 00:51:59;;;;;;;0.10;0.10;;;16.20;51.90;;;;;;5075209;28;20621;-45
2023/09/25 00:54:33;;;;;;;0.10;0.10;;;16.20;51.80;;;;;;5074539;28;20191;-46
2023/09/25 00:57:06;;;;;;;0.03;0.03;;;16.20;51.80;;;;;;5067088;28;20188;-46
2023/09/25 00:59:37;;;;;;;0.10;0.10;;;16.20;51.90;;;;;;5055198;28;20199;-45
2023/09/25 01:02:10;;;;;;;0.00;0.00;;;16.20;51.80;;;;;;5055200;28;20215;-46
2023/09/25 01:04:41;;;;;;;0.00;0.00;;;16.20;51.80;;;;;;5060052;28;20195;-44
2023/09/25 01:07:12;;;;;;;0.10;0.10;;;16.30;51.80;;;;;;5075155;28;20195;-44
2023/09/25 01:09:42;;;;;;;0.10;0.10;;;16.30;51.70;;;;;;5075845;28;20202;-45
2023/09/25 01:12:15;;;;;;;0.10;0.10;;;16.30;51.70;;;;;;5074576;28;20218;-46
2023/09/25 01:14:46;;;;;;;0.00;0.00;;;16.30;51.80;;;;;;5074806;28;20603;-44
2023/09/25 01:17:16;;;;;;;0.10;0.10;;;16.30;51.80;;;;;;5086312;22;20448;-61
2023/09/25 01:19:47;;;;;;;0.00;0.00;;;16.30;51.80;;;;;;5074791;28;20205;-62
2023/09/25 01:22:20;;;;;;;0.00;0.00;;;16.40;51.80;;;;;;5074816;28;20758;-63
2023/09/25 01:24:50;;;;;;;0.00;0.00;;;16.40;51.90;;;;;;5074787;28;20194;-64
2023/09/25 01:27:21;;;;;;;0.10;0.10;;;16.40;51.70;;;;;;5073869;28;20647;-60
2023/09/25 01:29:52;;;;;;;0.10;0.10;;;16.40;51.70;;;;;;5073880;28;20623;-59
2023/09/25 01:32:22;;;;;;;0.10;0.10;;;16.40;51.60;;;;;;5075142;28;20675;-59
2023/09/25 01:34:53;;;;;;;0.10;0.10;;;16.50;51.70;;;;;;5074256;28;20651;-58
2023/09/25 01:37:26;;;;;;;0.03;0.03;;;16.50;51.60;;;;;;5074303;28;20195;-60
2023/09/25 01:39:57;;;;;;;0.00;0.00;;;16.50;51.50;;;;;;5074187;28;20211;-62
2023/09/25 01:42:28;;;;;;;0.10;0.10;;;16.50;51.50;;;;;;5073684;28;20773;-63
2023/09/25 01:44:58;;;;;;;0.08;0.08;;;16.50;51.50;;;;;;5074413;28;20190;-61
2023/09/25 01:47:29;;;;;;;0.10;0.10;;;16.50;51.50;;;;;;5073900;28;20191;-62
2023/09/25 01:50:00;;;;;;;0.00;0.00;;;16.50;51.50;;;;;;5074206;28;20198;-64
2023/09/25 01:52:32;;;;;;;0.10;0.10;;;16.50;51.50;;;;;;5074102;28;20223;-63
2023/09/25 01:55:03;;;;;;;0.05;0.05;;;16.50;51.40;;;;;;5073893;28;20560;-63
2023/09/25 01:57:35;;;;;;;0.00;0.00;;;16.50;51.50;;;;;;5073405;28;20241;-65
2023/09/25 02:00:09;;;;;;;0.00;0.00;;;16.60;51.50;;;;;;5074077;28;20250;-63
2023/09/25 02:02:40;;;;;;;0.08;0.08;;;16.60;51.50;;;;;;5073937;28;20218;-64
2023/09/25 02:05:11;;;;;;;0.03;0.03;;;16.60;51.50;;;;;;5073967;28;20221;-62
2023/09/25 02:07:44;;;;;;;0.10;0.10;;;16.60;51.40;;;;;;5074135;28;20198;-63
2023/09/25 02:10:14;;;;;;;0.10;0.10;;;16.70;51.30;;;;;;5073778;28;20544;-62
2023/09/25 02:12:45;;;;;;;0.10;0.10;;;16.60;51.30;;;;;;5073140;28;20198;-63
2023/09/25 02:15:16;;;;;;;0.00;0.00;;;16.70;51.30;;;;;;5073485;28;20195;-61
2023/09/25 02:17:47;;;;;;;0.10;0.10;;;16.70;51.20;;;;;;5086462;22;20711;-46
2023/09/25 02:20:20;;;;;;;0.00;0.00;;;16.70;51.20;;;;;;5074007;28;20218;-49
2023/09/25 02:22:53;;;;;;;0.00;0.00;;;16.70;51.10;;;;;;5053596;28;20206;-46
2023/09/25 02:25:24;;;;;;;0.00;0.00;;;16.70;51.10;;;;;;5053430;28;20192;-46
2023/09/25 02:27:54;;;;;;;0.10;0.10;;;16.80;51.10;;;;;;5053509;28;20569;-46
2023/09/25 02:30:25;;;;;;;0.10;0.10;;;16.80;51.00;;;;;;5053750;28;20604;-45
2023/09/25 02:32:55;;;;;;;0.00;0.00;;;16.80;51.00;;;;;;5053620;28;20245;-46
2023/09/25 02:35:26;;;;;;;0.00;0.00;;;16.80;51.00;;;;;;5041807;28;20211;-46
2023/09/25 02:37:59;;;;;;;0.00;0.00;;;16.90;51.00;;;;;;5033531;28;20590;-46
2023/09/25 02:40:30;;;;;;;0.10;0.10;;;16.90;51.00;;;;;;5032608;28;20224;-45
2023/09/25 02:43:00;;;;;;;0.10;0.10;;;16.90;50.90;;;;;;5033005;28;20196;-46
2023/09/25 02:45:31;;;;;;;0.00;0.00;;;16.90;50.80;;;;;;5032886;28;20211;-45
2023/09/25 02:48:01;;;;;;;0.00;0.00;;;17.00;50.70;;;;;;5033495;28;20384;-45
2023/09/25 02:50:32;;;;;;;0.00;0.00;;;17.00;50.60;;;;;;5033419;28;20196;-45
2023/09/25 02:53:05;;;;;;;0.10;0.10;;;17.00;50.60;;;;;;5038760;28;20552;-45
2023/09/25 02:55:36;;;;;;;0.00;0.00;;;17.00;50.50;;;;;;5052679;28;20290;-46
2023/09/25 02:58:06;;;;;;;0.10;0.10;;;17.00;50.50;;;;;;5052498;28;20633;-46
2023/09/25 03:00:39;;;;;;;0.00;0.00;;;17.10;50.50;;;;;;5052603;28;20589;-46
2023/09/25 03:03:10;;;;;;;0.00;0.00;;;17.10;50.40;;;;;;5052765;28;20235;-45
2023/09/25 03:05:41;;;;;;;0.10;0.10;;;17.10;50.40;;;;;;5052747;28;20249;-46
2023/09/25 03:08:13;;;;;;;0.03;0.03;;;17.10;50.70;;;;;;5051933;28;20206;-47
2023/09/25 03:10:44;;;;;;;0.00;0.00;;;17.20;50.40;;;;;;5052247;28;20227;-46
2023/09/25 03:13:14;;;;;;;0.00;0.00;;;17.20;50.50;;;;;;5052269;28;20191;-46
2023/09/25 03:15:45;;;;;;;0.10;0.10;;;17.20;50.50;;;;;;5052506;28;20249;-45
2023/09/25 03:18:16;;;;;;;0.00;0.00;;;17.20;50.50;;;;;;5079892;22;20256;-60
2023/09/25 03:20:46;;;;;;;0.03;0.03;;;17.30;50.50;;;;;;5071947;28;20236;-61
2023/09/25 03:23:19;;;;;;;0.00;0.00;;;17.30;50.40;;;;;;5072457;28;20563;-60
2023/09/25 03:25:49;;;;;;;0.10;0.10;;;17.30;50.30;;;;;;5072160;28;20677;-60
2023/09/25 03:28:31;;;;;;;0.08;0.08;;;17.40;50.20;;;;;;5109507;27;20581;-64
2023/09/25 03:31:02;;;;;;;0.00;0.00;;;17.40;50.20;;;;;;5112951;28;20222;-60
2023/09/25 03:33:33;;;;;;;0.00;0.00;;;17.50;50.10;;;;;;5109225;28;20657;-63
2023/09/25 03:36:05;;;;;;;0.00;0.00;;;17.50;50.00;;;;;;5092741;28;20734;-63
2023/09/25 03:38:36;;;;;;;0.08;0.08;;;17.50;50.00;;;;;;5089087;28;20234;-63
2023/09/25 03:41:06;;;;;;;0.00;0.00;;;17.50;49.90;;;;;;5088328;28;20214;-64
2023/09/25 03:43:39;;;;;;;0.00;0.00;;;17.50;49.90;;;;;;5088532;28;20198;-63
2023/09/25 03:46:10;;;;;;;0.00;0.00;;;17.50;49.90;;;;;;5088988;28;20198;-62
2023/09/25 03:48:40;;;;;;;0.10;0.10;;;17.60;49.80;;;;;;5088773;28;20202;-64
2023/09/25 03:51:11;;;;;;;0.05;0.05;;;17.60;49.80;;;;;;5088867;28;20214;-62
2023/09/25 03:53:41;;;;;;;0.00;0.00;;;17.60;49.80;;;;;;5088303;28;20202;-60
2023/09/25 03:56:12;;;;;;;0.05;0.05;;;17.70;49.90;;;;;;5087877;28;20205;-60
2023/09/25 03:58:45;;;;;;;0.05;0.05;;;17.70;49.90;;;;;;5088275;28;20580;-62
2023/09/25 04:01:15;;;;;;;0.00;0.00;;;17.70;49.80;;;;;;5088555;28;20690;-61
2023/09/25 04:03:46;;;;;;;0.00;0.00;;;17.80;49.90;;;;;;5088746;28;20194;-61
2023/09/25 04:06:18;;;;;;;0.00;0.00;;;17.80;49.80;;;;;;5088552;28;20198;-61
2023/09/25 04:08:48;;;;;;;0.00;0.00;;;17.80;49.70;;;;;;5088368;28;20199;-62
2023/09/25 04:11:19;;;;;;;0.00;0.00;;;17.90;49.70;;;;;;5087842;28;20226;-62
2023/09/25 04:13:51;;;;;;;0.00;0.00;;;17.90;49.60;;;;;;5088521;28;20194;-61
2023/09/25 04:19:04;;;;;;;0.00;0.00;;;17.90;49.40;;;;;;5046891;28;20234;-44
2023/09/25 04:21:34;;;;;;;0.10;0.10;;;17.90;49.30;;;;;;5058808;28;20603;-45
2023/09/25 04:24:10;;;;;;;0.00;0.00;;;18.00;49.20;;;;;;5067372;28;20202;-46
2023/09/25 04:26:41;;;;;;;0.08;0.08;;;18.00;49.20;;;;;;5067690;28;20276;-45
2023/09/25 04:29:17;;;;;;;0.00;0.00;;;18.00;49.10;;;;;;5067554;28;20231;-46
2023/09/25 04:31:48;;;;;;;0.00;0.00;;;18.00;49.00;;;;;;5067810;28;20218;-47
2023/09/25 04:34:19;;;;;;;0.10;0.10;;;18.10;49.00;;;;;;5067718;28;20202;-47
2023/09/25 04:36:50;;;;;;;0.00;0.00;;;18.10;49.00;;;;;;5067792;28;20281;-50
2023/09/25 04:39:20;;;;;;;0.00;0.00;;;18.10;49.00;;;;;;5056582;28;20200;-46
2023/09/25 04:41:51;;;;;;;0.00;0.00;;;18.20;48.90;;;;;;5054441;28;20226;-45
2023/09/25 04:44:23;;;;;;;0.00;0.00;;;18.20;49.00;;;;;;5054581;28;20200;-45
2023/09/25 04:46:55;;;;;;;0.00;0.00;;;18.20;48.90;;;;;;5054207;28;20223;-45
2023/09/25 04:49:26;;;;;;;0.10;0.10;;;18.20;48.90;;;;;;5053859;28;20206;-46
2023/09/25 04:51:56;;;;;;;0.00;0.00;;;18.30;48.90;;;;;;5053942;28;20219;-46
2023/09/25 04:54:27;;;;;;;0.00;0.00;;;18.30;48.80;;;;;;5053470;28;20192;-45
2023/09/25 04:56:58;;;;;;;0.00;0.00;;;18.30;48.80;;;;;;5042742;28;20251;-45
2023/09/25 04:59:31;;;;;;;0.00;0.00;;;18.30;48.80;;;;;;5033488;28;20200;-46
2023/09/25 05:02:01;;;;;;;0.00;0.00;;;18.40;48.90;;;;;;5033666;28;20223;-45
2023/09/25 05:04:32;;;;;;;0.00;0.00;;;18.40;48.90;;;;;;5037825;28;20200;-46
2023/09/25 05:07:03;;;;;;;0.10;0.10;;;18.40;48.90;;;;;;5053911;28;20281;-44
2023/09/25 05:09:33;;;;;;;0.00;0.00;;;18.40;48.80;;;;;;5052928;28;20199;-44
2023/09/25 05:12:04;;;;;;;0.00;0.00;;;18.50;48.80;;;;;;5053382;28;20604;-46
2023/09/25 05:14:37;;;;;;;0.10;0.10;;;18.50;48.80;;;;;;5053401;28;20191;-45
2023/09/25 05:17:07;;;;;;;0.10;0.10;;;18.50;48.90;;;;;;5061322;28;20612;-44
2023/09/25 05:19:38;;;;;;;0.05;0.05;;;18.50;48.80;;;;;;5073744;28;20199;-45
2023/09/25 05:22:09;;;;;;;0.00;0.00;;;18.50;48.70;;;;;;5054851;28;20428;-44
2023/09/25 05:24:40;;;;;;;0.00;0.00;;;18.60;48.80;;;;;;5052673;28;20206;-45
2023/09/25 05:27:10;;;;;;;0.10;0.10;;;18.60;48.70;;;;;;5053404;28;20223;-46
2023/09/25 05:29:46;;;;;;;0.00;0.00;;;18.60;48.60;;;;;;5053312;28;20686;-46
2023/09/25 05:32:16;;;;;;;0.10;0.10;;;18.60;48.70;;;;;;5053331;28;20215;-46
2023/09/25 05:34:47;;;;;;;0.00;0.00;;;18.60;48.70;;;;;;5053764;28;20203;-46
2023/09/25 05:37:18;;;;;;;0.00;0.00;;;18.60;48.60;;;;;;5037357;28;20200;-46
2023/09/25 05:39:49;;;;;;;0.10;0.10;;;18.60;48.50;;;;;;5066896;28;20536;-45
2023/09/25 05:42:19;;;;;;;0.10;0.10;;;18.60;48.40;;;;;;5073335;28;20306;-45
2023/09/25 05:44:52;;;;;;;0.10;0.10;;;18.60;48.20;;;;;;5072933;28;20654;-46
2023/09/25 05:47:23;;;;;;;0.08;0.08;;;18.60;48.10;;;;;;5073076;28;20218;-44
2023/09/25 05:49:54;;;;;;;0.10;0.10;;;18.60;48.00;;;;;;5072624;28;20198;-45
2023/09/25 05:52:24;;;;;;;0.03;0.03;;;18.60;48.00;;;;;;5073137;28;20218;-45
2023/09/25 05:54:55;;;;;;;0.08;0.08;;;18.60;47.90;;;;;;5072502;28;20198;-45
2023/09/25 05:57:25;;;;;;;0.00;0.00;;;18.60;47.90;;;;;;5072930;28;20607;-46
2023/09/25 05:59:59;;;;;;;0.03;0.03;;;18.50;47.80;;;;;;5072602;28;20199;-45
2023/09/25 06:02:33;;;;;;;0.00;0.00;;;18.50;47.80;;;;;;5072876;28;20219;-45
2023/09/25 06:05:03;;;;;;;0.00;0.00;;;18.50;47.70;;;;;;5064850;28;20206;-45
2023/09/25 06:07:35;;;;;;;0.00;0.00;;;18.50;47.70;;;;;;5052843;28;20223;-45
2023/09/25 06:10:07;;;;;;;0.00;0.00;;;18.50;47.70;;;;;;5052195;28;20284;-46
2023/09/25 06:12:39;;;;;;;0.00;0.00;;;18.50;47.70;;;;;;5052588;28;20216;-46
2023/09/25 06:15:12;;;;;;;0.00;0.00;;;18.50;47.70;;;;;;5052765;28;20249;-46
2023/09/25 06:17:44;;;;;;;0.00;0.00;;;18.50;47.70;;;;;;5053085;28;20203;-46
2023/09/25 06:20:20;;;;;;;0.08;0.08;;;18.40;47.70;;;;;;5052374;28;20236;-46
2023/09/25 06:22:50;;;;;;;0.00;0.00;;;18.40;47.70;;;;;;5051915;28;20605;-46
2023/09/25 06:25:21;;;;;;;0.00;0.00;;;18.40;47.60;;;;;;5051930;28;20195;-46
2023/09/25 06:27:52;;;;;;;0.10;0.10;;;18.30;47.60;;;;;;5051831;28;20231;-45
2023/09/25 06:30:24;;;;;;;0.00;0.00;;;18.40;47.60;;;;;;5052168;28;20212;-46
2023/09/25 06:32:55;;;;;;;0.10;0.10;;;18.30;47.60;;;;;;5052099;28;20588;-45
2023/09/25 06:35:26;;;;;;;0.00;0.00;;;18.30;47.60;;;;;;5052080;28;20210;-46
2023/09/25 06:37:56;;;;;;;0.00;0.00;;;18.30;47.60;;;;;;5051407;28;20214;-46
2023/09/25 06:40:27;;;;;;;0.00;0.00;;;18.30;47.60;;;;;;5051819;28;20235;-46
2023/09/25 06:42:58;;;;;;;0.00;0.00;;;18.30;47.70;;;;;;5052091;28;20203;-46
2023/09/25 06:45:31;;;;;;;0.00;0.00;;;18.20;47.60;;;;;;5052203;28;20203;-46
2023/09/25 06:48:01;;;;;;;0.03;0.03;;;18.20;47.70;;;;;;5052009;28;20639;-47
2023/09/25 06:50:33;;;;;;;0.10;0.10;;;18.20;47.70;;;;;;5052005;28;20203;-44
2023/09/25 06:53:04;;;;;;;0.00;0.00;;;18.10;47.60;;;;;;5051247;28;20203;-45
2023/09/25 06:55:34;;;;;;;0.00;0.00;;;18.10;47.70;;;;;;5037267;28;20232;-45
2023/09/25 06:58:05;;;;;;;0.10;0.10;;;18.20;47.70;;;;;;5031939;28;20203;-45
2023/09/25 07:00:38;;;;;;;0.10;0.10;;;18.10;47.70;;;;;;5032228;28;20215;-46
2023/09/25 07:03:09;;;;;;;0.03;0.03;;;18.10;47.70;;;;;;5031498;28;20279;-47
2023/09/25 07:05:40;;;;;;;0.00;0.00;;;18.10;47.70;;;;;;5044130;28;20674;-46
2023/09/25 07:08:11;;;;;;;0.00;0.00;;;18.10;47.70;;;;;;5057254;28;20264;-46
2023/09/25 07:10:46;;;;;;;0.10;0.10;;;18.00;47.60;;;;;;5071691;28;20214;-47
2023/09/25 07:13:16;;;;;;;0.00;0.00;;;18.00;47.70;;;;;;5071374;28;20205;-49
2023/09/25 07:15:49;;;;;;;0.00;0.00;;;18.00;47.60;;;;;;5071265;28;20199;-46
2023/09/25 07:18:20;;;;;;;0.08;0.08;;;18.00;47.70;;;;;;5071462;28;20206;-45
2023/09/25 07:20:57;;;;;;;0.00;0.00;;;17.90;47.70;;;;;;5071523;28;20229;-46
2023/09/25 07:23:27;;;;;;;0.00;0.00;;;17.90;47.70;;;;;;5071132;28;20194;-46
2023/09/25 07:26:05;;;;;;;0.00;0.00;;;17.90;47.70;;;;;;5071806;28;20210;-47
2023/09/25 07:28:36;;;;;;;0.00;0.00;;;17.90;47.70;;;;;;5051304;28;20314;-45
2023/09/25 07:31:09;;;;;;;0.00;0.00;;;17.90;47.70;;;;;;5051309;28;20770;-45
2023/09/25 07:33:40;;;;;;;0.00;0.00;;;17.90;47.80;;;;;;5051542;28;20238;-46
2023/09/25 07:36:10;;;;;;;0.00;0.00;;;17.80;47.70;;;;;;5051368;28;20207;-46
2023/09/25 07:38:41;;;;;;;0.10;0.10;;;17.80;47.70;;;;;;5059517;28;20199;-46
2023/09/25 07:41:12;;;;;;;0.00;0.00;;;17.80;47.70;;;;;;5068653;28;20211;-45
2023/09/25 07:43:43;;;;;;;0.00;0.00;;;17.80;47.70;;;;;;5049306;28;20195;-44
2023/09/25 07:46:17;;;;;;;0.10;0.10;;;17.80;47.70;;;;;;5051278;28;20851;-45
2023/09/25 07:48:48;;;;;;;0.10;0.10;;;17.80;47.70;;;;;;5051463;28;20230;-45
2023/09/25 07:51:18;;;;;;;0.00;0.00;;;17.80;47.80;;;;;;5051373;28;20219;-45
2023/09/25 07:53:49;;;;;;;0.00;0.00;;;17.70;47.80;;;;;;5050692;28;20195;-46
2023/09/25 07:56:20;;;;;;;0.00;0.00;;;17.70;47.80;;;;;;5051267;28;20196;-46
2023/09/25 07:58:50;;;;;;;0.00;0.00;;;17.70;47.90;;;;;;5050865;28;20196;-46
2023/09/25 08:01:23;;;;;;;0.10;0.10;;;17.70;47.90;;;;;;5050726;28;20502;-46
2023/09/25 08:03:55;;;;;;;0.10;0.10;;;17.70;47.90;;;;;;5051153;28;20217;-45
2023/09/25 08:06:27;;;;;;;0.00;0.00;;;17.70;47.90;;;;;;5051193;28;20218;-45
2023/09/25 08:08:59;;;;;;;0.10;0.10;;;17.60;47.90;;;;;;5050896;28;20223;-45
2023/09/25 08:11:30;;;;;;;0.10;0.10;;;17.60;47.90;;;;;;5051355;28;20585;-45
2023/09/25 08:14:01;;;;;;;0.10;0.10;;;17.60;47.90;;;;;;5052735;28;20564;-46
2023/09/25 08:16:33;;;;;;;0.00;0.00;;;17.60;47.90;;;;;;5055039;28;20191;-45
2023/09/25 08:19:04;;;;;;;0.10;0.10;;;17.60;47.90;;;;;;5054539;28;20207;-45
2023/09/25 08:21:34;;;;;;;0.05;0.05;;;17.50;47.90;;;;;;5054252;28;20218;-45
2023/09/25 08:24:05;;;;;;;0.10;0.10;;;17.50;47.90;;;;;;5054789;28;20192;-45
2023/09/25 08:26:36;;;;;;;0.10;0.10;;;17.50;47.90;;;;;;5068088;22;20223;-61
2023/09/25 08:29:07;;;;;;;0.10;0.10;;;17.50;47.70;;;;;;5054635;28;20227;-60
2023/09/25 08:31:39;;;;;;;0.10;0.10;;;17.50;47.40;;;;;;5054629;28;20265;-63
2023/09/25 08:34:10;;;;;;;0.10;0.10;;;17.50;47.40;;;;;;5055059;28;20191;-63
2023/09/25 08:36:41;;;;;;;0.10;0.10;;;17.40;47.40;;;;;;5073793;28;20205;-59
2023/09/25 08:39:13;;;;;;;0.00;0.00;;;17.40;47.40;;;;;;5074167;28;20206;-58
2023/09/25 08:41:46;;;;;;;0.10;0.10;;;17.40;47.50;;;;;;5074143;28;20219;-59
2023/09/25 08:44:17;;;;;;;0.00;0.00;;;17.40;47.60;;;;;;5074146;28;20207;-59
2023/09/25 08:46:51;;;;;;;0.10;0.10;;;17.40;47.60;;;;;;5074364;28;20226;-60
2023/09/25 08:49:23;;;;;;;0.10;0.10;;;17.30;47.70;;;;;;5074606;28;20225;-63
2023/09/25 08:51:54;;;;;;;0.10;0.10;;;17.30;47.70;;;;;;5074060;28;20215;-61
2023/09/25 08:54:25;;;;;;;0.00;0.00;;;17.30;47.70;;;;;;5074070;28;20195;-62
2023/09/25 08:56:56;;;;;;;0.10;0.10;;;17.30;47.80;;;;;;5053935;28;20202;-60
2023/09/25 08:59:27;;;;;;;0.00;0.00;;;17.30;47.80;;;;;;5053942;28;20226;-60
2023/09/25 09:02:00;;;;;;;0.10;0.10;;;17.30;47.90;;;;;;5053602;28;20219;-61
2023/09/25 09:04:30;;;;;;;0.10;0.10;;;17.30;47.90;;;;;;5057359;28;20198;-63
2023/09/25 09:07:01;;;;;;;0.10;0.10;;;17.20;47.90;;;;;;5073335;28;20260;-60
2023/09/25 09:09:32;;;;;;;0.00;0.00;;;17.20;48.50;;;;;;5073610;28;20222;-59
2023/09/25 09:12:02;;;;;;;0.00;0.00;;;17.20;47.90;;;;;;5073558;28;20222;-61
2023/09/25 09:14:37;;;;;;;0.10;0.10;;;17.20;48.00;;;;;;5073735;28;20198;-62
2023/09/25 09:17:11;;;;;;;0.00;0.00;;;17.20;48.00;;;;;;5073571;28;20198;-60
2023/09/25 09:19:54;;;;;;;0.00;0.00;;;17.20;48.00;;;;;;5073803;28;20253;-55
2023/09/25 09:22:25;;;;;;;0.00;0.00;;;17.20;48.00;;;;;;5072923;28;20222;-60
2023/09/25 09:24:57;;;;;;;0.00;0.00;;;17.10;48.00;;;;;;5073408;28;20195;-59
2023/09/25 09:27:30;;;;;;;0.08;0.08;;;17.10;48.00;;;;;;5072933;22;20657;-44
2023/09/25 09:30:02;;;;;;;0.10;0.10;;;17.10;48.00;;;;;;5052705;28;20219;-44
2023/09/25 09:32:35;;;;;;;0.10;0.10;;;17.10;48.10;;;;;;5053424;28;20365;-44
2023/09/25 09:35:08;;;;;;;0.10;0.10;;;17.10;48.10;;;;;;5061558;28;20230;-44
2023/09/25 09:37:39;;;;;;;0.10;0.10;;;17.10;48.10;;;;;;5072796;28;20190;-44
2023/09/25 09:40:13;;;;;;;0.08;0.08;;;17.10;48.20;;;;;;5072649;28;20701;-44
2023/09/25 09:42:45;;;;;;;0.10;0.10;;;17.10;48.20;;;;;;5072669;28;20214;-44
2023/09/25 09:45:16;;;;;;;0.10;0.10;;;17.00;48.20;;;;;;5072846;28;20203;-45
2023/09/25 09:47:49;;;;;;;0.00;0.00;;;17.00;48.20;;;;;;5059883;28;20596;-45
2023/09/25 09:50:23;;;;;;;0.10;0.10;;;17.00;48.20;;;;;;5053007;28;20566;-44
2023/09/25 09:52:55;;;;;;;0.10;0.10;;;17.00;48.30;;;;;;5052382;28;20196;-44
2023/09/25 09:55:26;;;;;;;0.10;0.10;;;17.00;48.30;;;;;;5053104;28;20207;-44
2023/09/25 09:57:57;;;;;;;0.00;0.00;;;17.00;48.30;;;;;;5053107;28;20655;-45
2023/09/25 10:00:28;;;;;;;0.05;0.05;;;16.90;48.20;;;;;;5052736;28;20199;-43
2023/09/25 10:03:01;;;;;;;0.10;0.10;;;17.00;48.90;;;;;;5053098;28;20196;-44
2023/09/25 10:05:31;;;;;;;0.00;0.00;;;17.00;48.30;;;;;;5064308;28;20199;-45
2023/09/25 10:08:11;;;;;;;0.08;0.08;;;16.90;48.30;;;;;;5072473;28;20195;-44
2023/09/25 10:10:45;;;;;;;0.10;0.10;;;16.90;48.30;;;;;;5072861;28;20301;-45
2023/09/25 10:13:25;;;;;;;0.10;0.10;;;16.90;48.30;;;;;;5072688;28;20202;-45
2023/09/25 10:16:00;;;;;;;0.00;0.00;;;16.90;48.40;;;;;;5072444;28;20206;-44
2023/09/25 10:18:33;;;;;;;0.10;0.10;;;16.90;48.30;;;;;;5072654;28;20198;-44
2023/09/25 10:21:10;;;;;;;0.10;0.10;;;16.90;48.40;;;;;;5071792;28;20294;-44
2023/09/25 10:23:43;;;;;;;0.10;0.10;;;16.90;48.40;;;;;;5072552;28;20195;-44
2023/09/25 10:26:20;;;;;;;0.00;0.00;;;16.80;48.40;;;;;;5072761;28;20195;-45
2023/09/25 10:29:00;;;;;;;0.00;0.00;;;16.80;48.40;;;;;;5072268;28;20222;-45
2023/09/25 10:31:33;;;;;;;0.00;0.00;;;16.80;48.40;;;;;;5072210;28;20210;-45
2023/09/25 10:34:09;;;;;;;0.10;0.10;;;16.80;48.50;;;;;;5072330;28;20191;-45
2023/09/25 10:36:40;;;;;;;0.00;0.00;;;16.80;48.50;;;;;;5031407;28;20279;-45
2023/09/25 10:39:13;;;;;;;0.10;0.10;;;16.70;48.50;;;;;;5032670;28;20199;-46
2023/09/25 10:41:45;;;;;;;0.00;0.00;;;16.70;48.50;;;;;;5032361;28;20219;-45
2023/09/25 10:44:16;;;;;;;0.10;0.10;;;16.70;48.60;;;;;;5031809;28;20200;-44
2023/09/25 10:46:47;;;;;;;0.10;0.10;;;16.70;48.60;;;;;;5031803;28;20203;-44
2023/09/25 10:49:19;;;;;;;0.08;0.08;;;16.70;48.60;;;;;;5032184;28;20226;-46
2023/09/25 10:51:50;;;;;;;0.10;0.10;;;16.70;48.60;;;;;;5031609;28;20227;-45
2023/09/25 10:54:20;;;;;;;0.10;0.10;;;16.70;48.60;;;;;;5031982;28;20196;-46
2023/09/25 10:56:52;;;;;;;0.10;0.10;;;16.60;48.60;;;;;;5032327;28;20644;-44
2023/09/25 10:59:22;;;;;;;0.00;0.00;;;16.60;48.60;;;;;;5031992;28;20242;-45
2023/09/25 11:01:54;;;;;;;0.10;0.10;;;16.60;48.60;;;;;;5044797;28;20215;-45
2023/09/25 11:04:26;;;;;;;0.10;0.10;;;16.60;48.60;;;;;;5054456;28;20655;-44
2023/09/25 11:06:58;;;;;;;0.10;0.10;;;16.60;48.60;;;;;;5071310;28;20654;-46
2023/09/25 11:09:29;;;;;;;0.10;0.10;;;16.60;48.70;;;;;;5072000;28;20288;-45
2023/09/25 11:12:01;;;;;;;0.00;0.00;;;16.60;48.70;;;;;;5071766;28;20215;-45
2023/09/25 11:14:39;;;;;;;0.00;0.00;;;16.50;48.70;;;;;;5071264;28;20602;-44
2023/09/25 11:17:10;;;;;;;0.10;0.10;;;16.50;48.70;;;;;;5070535;28;20199;-44
2023/09/25 11:19:48;;;;;;;0.10;0.10;;;16.50;48.70;;;;;;5071381;28;20190;-44
2023/09/25 11:22:22;;;;;;;0.10;0.10;;;16.50;48.70;;;;;;5071377;28;20224;-44
2023/09/25 11:24:57;;;;;;;0.10;0.10;;;16.50;48.80;;;;;;5071698;28;20198;-44
2023/09/25 11:27:28;;;;;;;0.10;0.10;;;16.50;48.80;;;;;;5072162;28;20202;-46
2023/09/25 11:29:58;;;;;;;0.00;0.00;;;16.50;48.80;;;;;;5071231;28;20229;-44
2023/09/25 11:32:30;;;;;;;0.03;0.03;;;16.50;48.80;;;;;;5065129;28;20219;-44
2023/09/25 11:35:03;;;;;;;0.10;0.10;;;16.50;48.80;;;;;;5058042;28;20245;-44
2023/09/25 11:37:33;;;;;;;0.00;0.00;;;16.40;48.80;;;;;;5071692;28;20195;-44
2023/09/25 11:40:07;;;;;;;0.10;0.10;;;16.40;48.90;;;;;;5071319;28;20254;-45
2023/09/25 11:42:37;;;;;;;0.10;0.10;;;16.40;48.80;;;;;;5071221;28;20250;-43
2023/09/25 11:45:11;;;;;;;0.10;0.10;;;16.40;48.80;;;;;;5071484;28;20587;-45
2023/09/25 11:47:42;;;;;;;0.00;0.00;;;16.40;48.90;;;;;;5071561;28;20277;-44
2023/09/25 11:50:16;;;;;;;0.10;0.10;;;16.40;48.90;;;;;;5075185;28;20223;-45
2023/09/25 11:52:47;;;;;;;0.00;0.00;;;16.30;49.00;;;;;;5056675;28;20201;-44
2023/09/25 11:55:19;;;;;;;0.10;0.10;;;16.40;49.00;;;;;;5055026;28;20195;-46
2023/09/25 11:57:51;;;;;;;0.00;0.00;;;16.30;48.90;;;;;;5054975;28;20196;-44
2023/09/25 12:00:23;;;;;;;0.10;0.10;;;16.30;49.00;;;;;;5054376;28;20634;-44
2023/09/25 12:02:54;;;;;;;0.00;0.00;;;16.30;49.00;;;;;;5054789;28;20253;-45
2023/09/25 12:05:26;;;;;;;0.05;0.05;;;16.30;49.00;;;;;;5065477;28;20198;-47
2023/09/25 12:07:57;;;;;;;0.03;0.03;;;16.30;49.00;;;;;;5074760;28;20256;-45
2023/09/25 12:10:28;;;;;;;0.00;0.00;;;16.30;49.00;;;;;;5074670;28;20222;-45
2023/09/25 12:12:58;;;;;;;0.08;0.08;;;16.30;49.00;;;;;;5075020;28;20195;-45
2023/09/25 12:15:29;;;;;;;0.10;0.10;;;16.20;49.60;;;;;;5074765;28;20203;-45
2023/09/25 12:17:59;;;;;;;0.00;0.00;;;16.20;49.00;;;;;;5075107;28;20198;-44
2023/09/25 12:20:32;;;;;;;0.03;0.03;;;16.30;49.20;;;;;;5074489;28;20202;-45
2023/09/25 12:23:03;;;;;;;0.00;0.00;;;16.20;49.10;;;;;;5074690;28;20203;-45
2023/09/25 12:25:33;;;;;;;0.10;0.10;;;16.20;49.10;;;;;;5074632;28;20190;-45
2023/09/25 12:28:04;;;;;;;0.00;0.00;;;16.20;49.10;;;;;;5075184;28;20202;-45
2023/09/25 12:30:35;;;;;;;0.00;0.00;;;16.20;49.10;;;;;;5074479;28;20238;-45
2023/09/25 12:33:07;;;;;;;0.10;0.10;;;16.20;49.20;;;;;;5074626;28;20191;-44
2023/09/25 12:35:41;;;;;;;0.00;0.00;;;16.20;49.20;;;;;;5074650;28;20198;-45
2023/09/25 12:38:11;;;;;;;0.08;0.08;;;16.10;49.20;;;;;;5074540;28;20741;-45
2023/09/25 12:40:42;;;;;;;0.10;0.10;;;16.10;49.20;;;;;;5074277;28;20223;-45
2023/09/25 12:43:13;;;;;;;0.10;0.10;;;16.10;49.20;;;;;;5074462;28;20195;-46
2023/09/25 12:45:43;;;;;;;0.10;0.10;;;16.10;49.20;;;;;;5074354;28;20202;-45
2023/09/25 12:48:14;;;;;;;0.10;0.10;;;16.10;49.20;;;;;;5074282;28;20203;-45
2023/09/25 12:50:47;;;;;;;0.10;0.10;;;16.10;49.20;;;;;;5073690;28;20230;-45
2023/09/25 12:53:18;;;;;;;0.03;0.03;;;16.10;49.20;;;;;;5073960;28;20195;-45
2023/09/25 12:55:49;;;;;;;0.10;0.10;;;16.10;49.30;;;;;;5056364;28;20192;-45
2023/09/25 12:58:19;;;;;;;0.10;0.10;;;16.10;49.30;;;;;;5053605;28;20536;-44
2023/09/25 13:00:50;;;;;;;0.08;0.08;;;16.10;49.30;;;;;;5052958;28;20218;-44
2023/09/25 13:03:20;;;;;;;0.10;0.10;;;16.00;49.30;;;;;;5053813;28;20203;-44
2023/09/25 13:05:53;;;;;;;0.03;0.03;;;16.00;49.30;;;;;;5068433;28;20203;-46
2023/09/25 13:08:23;;;;;;;0.10;0.10;;;16.00;49.30;;;;;;5063710;28;20567;-44
2023/09/25 13:10:54;;;;;;;0.10;0.10;;;16.00;49.30;;;;;;5053922;28;20230;-45
2023/09/25 13:13:25;;;;;;;0.00;0.00;;;16.00;49.30;;;;;;5053987;28;20196;-44